createdAt,value
2017-11-07T00:11:01.418Z,12.05
2017-11-07T00:13:51.052Z,19.42
2017-11-07T00:16:49.012Z,10.60
2017-11-07T00:19:46.677Z,8.45
2017-11-07T00:22:49.387Z,18.70
2017-11-07T00:25:46.206Z,11.90
2017-11-07T00:34:54.000Z,14.38
2017-11-07T00:37:43.052Z,15.53
2017-11-07T00:40:39.963Z,13.57
2017-11-07T00:43:37.139Z,23.38
2017-11-07T00:46:34.268Z,14.10
2017-11-07T00:49:31.203Z,16.75
2017-11-07T00:52:29.160Z,17.83
2017-11-07T00:55:26.311Z,11.85
2017-11-07T00:57:52.074Z,16.77
2017-11-07T01:17:28.211Z,16.05
2017-11-07T01:19:53.989Z,20.25
2017-11-07T01:22:43.134Z,17.10
2017-11-07T01:41:54.084Z,13.52
2017-11-07T01:44:42.874Z,16.87
2017-11-07T01:47:40.670Z,15.27
2017-11-07T01:50:38.480Z,19.75
2017-11-07T01:53:36.084Z,21.33
2017-11-07T01:56:33.183Z,12.82
2017-11-07T01:59:30.967Z,14.02
2017-11-07T02:02:27.984Z,23.73
2017-11-07T02:21:39.275Z,14.77
2017-11-07T02:24:36.374Z,19.20
2017-11-07T02:27:02.176Z,22.77
2017-11-07T02:46:37.519Z,19.30
2017-11-07T02:49:03.314Z,23.65
2017-11-07T02:51:53.054Z,21.87
2017-11-07T02:54:50.067Z,14.85
2017-11-07T02:57:47.149Z,15.38
2017-11-07T03:10:44.074Z,14.40
2017-11-07T03:13:33.768Z,18.40
2017-11-07T03:16:30.903Z,24.05
2017-11-07T03:19:28.973Z,14.30
2017-11-07T03:32:13.599Z,19.52
2017-11-07T03:35:03.331Z,17.90
2017-11-07T03:54:15.769Z,22.25
2017-11-07T03:57:04.742Z,16.77
2017-11-07T04:16:16.952Z,24.35
2017-11-07T04:19:06.140Z,25.80
2017-11-07T04:22:03.164Z,18.08
2017-11-07T04:25:00.508Z,24.58
2017-11-07T04:27:57.734Z,20.65
2017-11-07T04:30:54.891Z,16.90
2017-11-07T04:33:51.992Z,21.40
2017-11-07T04:36:49.194Z,27.05
2017-11-07T04:39:14.981Z,17.87
2017-11-07T04:42:04.587Z,18.83
2017-11-07T04:45:01.726Z,22.33
2017-11-07T04:47:58.943Z,24.80
2017-11-07T04:50:56.209Z,24.17
2017-11-07T04:53:53.452Z,24.77
2017-11-07T05:13:01.072Z,30.73
2017-11-07T05:15:59.087Z,30.02
2017-11-07T05:18:57.039Z,22.60
2017-11-07T05:21:53.859Z,27.30
2017-11-07T05:24:51.938Z,21.60
2017-11-07T05:27:17.706Z,41.58
2017-11-07T05:30:07.207Z,27.40
2017-11-07T05:33:05.150Z,25.80
2017-11-07T05:48:56.403Z,26.87
2017-11-07T05:51:45.560Z,26.37
2017-11-07T05:54:42.847Z,24.33
2017-11-07T05:57:40.496Z,26.00
2017-11-07T06:00:37.536Z,29.58
2017-11-07T06:03:34.410Z,29.58
2017-11-07T06:22:44.475Z,36.10
2017-11-07T06:25:41.442Z,31.50
2017-11-07T06:28:38.598Z,24.77
2017-11-07T06:31:35.520Z,33.88
2017-11-07T06:34:33.507Z,32.88
2017-11-07T06:53:44.480Z,37.75
2017-11-07T06:56:41.630Z,39.30
2017-11-07T06:59:07.400Z,30.40
2017-11-07T07:01:56.353Z,37.93
2017-11-07T07:04:53.795Z,34.42
2017-11-07T07:20:44.208Z,36.25
2017-11-07T07:23:33.279Z,36.27
2017-11-07T07:26:31.265Z,43.03
2017-11-07T07:42:22.458Z,44.10
2017-11-07T07:45:11.436Z,36.53
2017-11-07T08:04:23.660Z,39.65
2017-11-07T08:07:12.751Z,42.93
2017-11-07T08:10:09.885Z,38.20
2017-11-07T08:13:06.700Z,53.13
2017-11-07T08:16:03.817Z,43.72
2017-11-07T08:19:01.600Z,45.70
2017-11-07T08:21:58.623Z,40.88
2017-11-07T08:27:45.679Z,44.75
2017-11-07T08:47:22.485Z,52.13
2017-11-07T09:06:34.146Z,46.40
2017-11-07T09:09:31.169Z,45.05
2017-11-07T09:11:56.963Z,46.63
2017-11-07T09:14:46.631Z,54.40
2017-11-07T09:17:44.533Z,47.45
2017-11-07T09:20:41.760Z,41.13
2017-11-07T09:33:28.592Z,45.22
2017-11-07T09:53:04.491Z,44.70
2017-11-07T09:55:30.286Z,48.30
2017-11-07T10:15:04.855Z,51.50
2017-11-07T10:17:30.644Z,49.42
2017-11-07T10:20:20.376Z,54.90
2017-11-07T10:23:18.387Z,47.88
2017-11-07T10:39:08.475Z,53.67
2017-11-07T10:41:57.455Z,45.80
2017-11-07T10:44:54.797Z,40.67
2017-11-07T10:47:51.939Z,43.00
2017-11-07T10:50:48.954Z,57.35
2017-11-07T10:53:45.908Z,37.38
2017-11-07T10:56:42.979Z,39.80
2017-11-07T10:59:40.483Z,39.55
2017-11-07T11:02:06.283Z,44.45
2017-11-07T11:04:55.607Z,44.20
2017-11-07T11:07:53.418Z,43.65
2017-11-07T11:10:50.585Z,47.55
2017-11-07T11:13:48.369Z,47.30
2017-11-07T11:16:45.175Z,38.92
2017-11-07T11:19:41.903Z,40.65
2017-11-07T11:22:38.949Z,38.28
2017-11-07T11:25:04.736Z,51.13
2017-11-07T11:27:53.791Z,42.93
2017-11-07T11:30:50.532Z,38.92
2017-11-07T11:33:47.331Z,44.05
2017-11-07T11:46:43.741Z,42.15
2017-11-07T11:49:33.427Z,42.85
2017-11-07T11:52:31.332Z,39.22
2017-11-07T11:55:29.249Z,36.63
2017-11-07T12:08:12.434Z,37.85
2017-11-07T12:11:02.032Z,38.65
2017-11-07T12:13:59.950Z,36.08
2017-11-07T12:16:57.942Z,39.65
2017-11-07T12:29:44.727Z,40.15
2017-11-07T12:32:34.348Z,38.45
2017-11-07T12:35:31.304Z,36.15
2017-11-07T12:38:28.170Z,37.47
2017-11-07T12:51:24.565Z,39.13
2017-11-07T12:54:14.094Z,42.60
2017-11-07T12:57:11.023Z,43.60
2017-11-07T13:13:02.447Z,42.80
2017-11-07T13:15:51.720Z,42.33
2017-11-07T13:18:48.847Z,41.92
2017-11-07T13:21:45.903Z,39.60
2017-11-07T13:34:31.127Z,40.00
2017-11-07T13:37:20.903Z,40.12
2017-11-07T13:40:18.030Z,40.38
2017-11-07T13:43:15.924Z,43.08
2017-11-07T13:56:13.240Z,35.25
2017-11-07T13:59:02.860Z,38.50
2017-11-07T14:18:16.039Z,37.92
2017-11-07T14:21:05.989Z,41.50
2017-11-07T14:24:03.612Z,40.03
2017-11-07T14:27:00.902Z,37.15
2017-11-07T14:29:58.419Z,44.60
2017-11-07T14:32:55.863Z,52.05
2017-11-07T14:35:53.710Z,38.53
2017-11-07T14:41:41.341Z,37.05
2017-11-07T15:01:15.394Z,41.63
2017-11-07T15:20:23.483Z,38.40
2017-11-07T15:23:21.437Z,41.00
2017-11-07T15:25:47.194Z,56.25
2017-11-07T15:28:37.238Z,41.00
2017-11-07T15:31:34.894Z,47.08
2017-11-07T15:47:25.975Z,50.92
2017-11-07T15:50:15.525Z,48.83
2017-11-07T15:53:13.419Z,41.25
2017-11-07T16:09:04.586Z,36.45
2017-11-07T16:11:53.462Z,38.83
2017-11-07T16:14:50.580Z,42.78
2017-11-07T16:17:48.556Z,42.38
2017-11-07T16:20:45.696Z,48.30
2017-11-07T16:23:42.732Z,46.88
2017-11-07T16:32:51.051Z,53.13
2017-11-07T16:35:40.397Z,85.40
2017-11-07T16:54:52.165Z,41.63
2017-11-07T16:57:41.214Z,48.60
2017-11-07T17:17:07.292Z,48.90
2017-11-07T17:19:56.345Z,41.50
2017-11-07T17:22:54.201Z,40.17
2017-11-07T17:25:51.450Z,37.08
2017-11-07T17:38:35.469Z,34.08
2017-11-07T17:41:25.128Z,34.58
2017-11-07T17:44:22.195Z,39.78
2017-11-07T18:03:33.028Z,44.15
2017-11-07T18:22:44.979Z,45.22
2017-11-07T18:25:34.783Z,41.53
2017-11-07T18:28:32.615Z,33.72
2017-11-07T18:31:29.715Z,39.88
2017-11-07T18:34:26.531Z,33.88
2017-11-07T18:44:16.457Z,40.00
2017-11-07T19:03:52.030Z,44.83
2017-11-07T19:06:17.807Z,41.22
2017-11-07T19:25:54.716Z,34.92
2017-11-07T19:48:20.871Z,32.80
2017-11-07T19:50:46.620Z,30.40
2017-11-07T20:10:35.060Z,36.28
2017-11-07T20:29:52.118Z,33.85
2017-11-07T20:32:49.992Z,35.28
2017-11-07T20:52:07.374Z,36.97
2017-11-07T21:11:23.114Z,41.47
2017-11-07T21:30:33.560Z,40.42
2017-11-07T21:52:59.655Z,31.80
2017-11-07T22:12:09.534Z,36.05
2017-11-07T22:15:06.515Z,40.17
2017-11-07T22:34:17.751Z,57.60
2017-11-07T22:50:08.871Z,54.38
2017-11-07T23:09:44.346Z,53.83
2017-11-07T23:12:10.079Z,56.70
2017-11-07T23:14:59.635Z,61.87
2017-11-07T23:17:57.399Z,55.75
2017-11-07T23:20:54.327Z,60.72
2017-11-07T23:23:52.099Z,64.93
2017-11-07T23:33:42.263Z,61.85
2017-11-07T23:36:32.602Z,59.83
2017-11-07T23:55:45.647Z,71.80
2017-11-07T23:58:36.929Z,69.07
